Time,TemperatureF,DewpointF,PressureIn,WindDirection,WindDirectionDegrees,WindSpeedMPH,WindSpeedGustMPH,Humidity,HourlyPrecipIn,Conditions,Clouds,dailyrainin,SoftwareType,DateUTC
2013-07-17 00:03:00,76.8,68.3,30.24,SSE,168,0.0,0.0,75,0.00,,,0.00,Wunderground v.1.15,2013-07-17 05:03:00,
2013-07-17 00:08:00,76.6,68.1,30.24,South,169,0.0,1.0,75,0.00,,,0.00,Wunderground v.1.15,2013-07-17 05:08:00,
2013-07-17 00:14:00,76.4,68.3,30.24,South,169,1.0,2.0,76,0.00,,,0.00,Wunderground v.1.15,2013-07-17 05:14:00,
2013-07-17 00:20:00,76.3,68.6,30.24,South,169,1.0,1.0,77,0.00,,,0.00,Wunderground v.1.15,2013-07-17 05:20:00,
2013-07-17 00:25:00,76.4,68.7,30.24,South,169,1.0,2.0,77,0.00,,,0.00,Wunderground v.1.15,2013-07-17 05:25:00,
2013-07-17 00:30:00,76.6,68.8,30.24,South,169,2.0,2.0,77,0.00,,,0.00,Wunderground v.1.15,2013-07-17 05:30:00,
2013-07-17 00:36:00,76.8,69.0,30.24,South,169,2.0,4.0,77,0.00,,,0.00,Wunderground v.1.15,2013-07-17 05:36:00,
2013-07-17 00:42:00,77.0,69.2,30.24,South,170,2.0,4.0,77,0.00,,,0.00,Wunderground v.1.15,2013-07-17 05:42:00,
2013-07-17 00:47:00,77.0,69.2,30.24,South,179,2.0,4.0,77,0.00,,,0.00,Wunderground v.1.15,2013-07-17 05:47:00,
2013-07-17 00:53:00,76.9,69.1,30.24,South,179,1.0,4.0,77,0.00,,,0.00,Wunderground v.1.15,2013-07-17 05:53:00,
2013-07-17 00:59:00,76.8,69.0,30.24,South,185,1.0,4.0,77,0.00,,,0.00,Wunderground v.1.15,2013-07-17 05:59:00,
2013-07-17 01:04:00,76.7,68.9,30.24,South,185,1.0,1.0,77,0.00,,,0.00,Wunderground v.1.15,2013-07-17 06:04:00,
2013-07-17 01:10:00,76.6,68.8,30.24,South,185,0.0,0.0,77,0.00,,,0.00,Wunderground v.1.15,2013-07-17 06:10:00,
2013-07-17 01:15:00,76.5,69.1,30.24,South,185,0.0,0.0,78,0.00,,,0.00,Wunderground v.1.15,2013-07-17 06:15:00,
2013-07-17 01:21:00,76.1,68.7,30.25,South,185,0.0,0.0,78,0.00,,,0.00,Wunderground v.1.15,2013-07-17 06:21:00,
2013-07-17 01:27:00,75.6,68.6,30.25,South,185,0.0,0.0,79,0.00,,,0.00,Wunderground v.1.15,2013-07-17 06:27:00,
2013-07-17 01:33:00,75.0,68.4,30.25,South,185,0.0,4.0,80,0.00,,,0.00,Wunderground v.1.15,2013-07-17 06:33:00,
2013-07-17 01:39:00,74.5,68.3,30.24,South,185,0.0,4.0,81,0.00,,,0.00,Wunderground v.1.15,2013-07-17 06:39:00,
2013-07-17 01:44:00,74.2,68.3,30.25,South,185,0.0,4.0,82,0.00,,,0.00,Wunderground v.1.15,2013-07-17 06:44:00,
2013-07-17 01:50:00,73.9,68.1,30.25,South,185,0.0,4.0,82,0.00,,,0.00,Wunderground v.1.15,2013-07-17 06:50:00,
2013-07-17 01:55:00,73.9,68.4,30.25,South,185,0.0,4.0,83,0.00,,,0.00,Wunderground v.1.15,2013-07-17 06:55:00,
2013-07-17 02:00:00,73.9,68.8,30.25,South,185,0.0,0.0,84,0.00,,,0.00,Wunderground v.1.15,2013-07-17 07:00:00,
2013-07-17 02:06:00,73.9,68.8,30.24,South,185,1.0,1.0,84,0.00,,,0.00,Wunderground v.1.15,2013-07-17 07:06:00,
2013-07-17 02:11:00,73.9,69.0,30.24,South,185,0.0,2.0,84,0.00,,,0.00,weatherlink.com 1.10,2013-07-17 07:11:00,
2013-07-17 02:17:00,73.3,67.5,30.24,South,185,0.0,1.0,82,0.00,,,0.00,Wunderground v.1.15,2013-07-17 07:17:00,
2013-07-17 02:23:00,72.7,67.2,30.24,South,185,0.0,0.0,83,0.00,,,0.00,Wunderground v.1.15,2013-07-17 07:23:00,
2013-07-17 02:29:00,72.4,67.6,30.24,South,185,0.0,0.0,85,0.00,,,0.00,Wunderground v.1.15,2013-07-17 07:29:00,
2013-07-17 02:34:00,72.3,67.9,30.24,South,185,0.0,2.0,86,0.00,,,0.00,Wunderground v.1.15,2013-07-17 07:34:00,
2013-07-17 02:40:00,72.0,67.6,30.25,South,185,0.0,2.0,86,0.00,,,0.00,Wunderground v.1.15,2013-07-17 07:40:00,
2013-07-17 02:46:00,71.6,67.2,30.25,South,185,0.0,2.0,86,0.00,,,0.00,Wunderground v.1.15,2013-07-17 07:46:00,
2013-07-17 02:52:00,71.5,67.4,30.25,South,185,0.0,2.0,87,0.00,,,0.00,Wunderground v.1.15,2013-07-17 07:52:00,
2013-07-17 02:57:00,71.4,68.0,30.25,South,185,0.0,0.0,88,0.00,,,0.00,weatherlink.com 1.10,2013-07-17 07:57:00,
2013-07-17 03:04:00,71.2,67.5,30.25,South,185,0.0,0.0,88,0.00,,,0.00,Wunderground v.1.15,2013-07-17 08:04:00,
2013-07-17 03:10:00,70.8,67.1,30.25,South,185,0.0,0.0,88,0.00,,,0.00,Wunderground v.1.15,2013-07-17 08:10:00,
2013-07-17 03:16:00,70.7,67.0,30.25,South,185,0.0,0.0,88,0.00,,,0.00,Wunderground v.1.15,2013-07-17 08:16:00,
2013-07-17 03:21:00,70.7,67.3,30.25,South,185,0.0,0.0,89,0.00,,,0.00,Wunderground v.1.15,2013-07-17 08:21:00,
2013-07-17 03:27:00,70.6,67.2,30.25,South,185,0.0,0.0,89,0.00,,,0.00,Wunderground v.1.15,2013-07-17 08:27:00,
2013-07-17 03:32:00,70.5,67.1,30.25,South,185,0.0,2.0,89,0.00,,,0.00,Wunderground v.1.15,2013-07-17 08:32:00,
2013-07-17 03:39:00,70.3,66.9,30.25,South,185,0.0,2.0,89,0.00,,,0.00,Wunderground v.1.15,2013-07-17 08:39:00,
2013-07-17 03:45:00,70.1,66.7,30.24,South,185,0.0,2.0,89,0.00,,,0.00,Wunderground v.1.15,2013-07-17 08:45:00,
2013-07-17 03:51:00,69.7,66.6,30.25,South,185,0.0,2.0,90,0.00,,,0.00,Wunderground v.1.15,2013-07-17 08:51:00,
2013-07-17 03:57:00,69.6,67.0,30.25,South,185,0.0,0.0,90,0.00,,,0.00,weatherlink.com 1.10,2013-07-17 08:57:00,
2013-07-17 04:02:00,69.7,66.6,30.24,South,185,0.0,0.0,90,0.00,,,0.00,Wunderground v.1.15,2013-07-17 09:02:00,
2013-07-17 04:08:00,69.8,66.7,30.25,South,185,0.0,0.0,90,0.00,,,0.00,Wunderground v.1.15,2013-07-17 09:08:00,
2013-07-17 04:13:00,69.8,67.1,30.25,South,185,0.0,0.0,91,0.00,,,0.00,Wunderground v.1.15,2013-07-17 09:13:00,
2013-07-17 04:18:00,69.9,67.2,30.25,South,185,0.0,0.0,91,0.00,,,0.00,Wunderground v.1.15,2013-07-17 09:18:00,
2013-07-17 04:24:00,69.8,67.1,30.25,South,185,0.0,0.0,91,0.00,,,0.00,Wunderground v.1.15,2013-07-17 09:24:00,
2013-07-17 04:30:00,69.6,66.5,30.25,South,185,0.0,0.0,90,0.00,,,0.00,Wunderground v.1.15,2013-07-17 09:30:00,
2013-07-17 04:35:00,69.4,66.7,30.25,South,185,0.0,0.0,91,0.00,,,0.00,Wunderground v.1.15,2013-07-17 09:35:00,
2013-07-17 04:41:00,69.5,66.8,30.25,South,185,0.0,0.0,91,0.00,,,0.00,Wunderground v.1.15,2013-07-17 09:41:00,
2013-07-17 04:47:00,69.6,66.9,30.25,South,185,0.0,0.0,91,0.00,,,0.00,Wunderground v.1.15,2013-07-17 09:47:00,
2013-07-17 04:52:00,69.5,66.8,30.24,South,185,0.0,0.0,91,0.00,,,0.00,Wunderground v.1.15,2013-07-17 09:52:00,
2013-07-17 04:58:00,69.5,67.0,30.24,South,185,0.0,0.0,91,0.00,,,0.00,weatherlink.com 1.10,2013-07-17 09:58:00,
2013-07-17 05:03:00,69.3,66.6,30.24,South,185,0.0,0.0,91,0.00,,,0.00,Wunderground v.1.15,2013-07-17 10:03:00,
2013-07-17 05:09:00,69.2,66.5,30.24,South,185,0.0,0.0,91,0.00,,,0.00,Wunderground v.1.15,2013-07-17 10:09:00,
2013-07-17 05:14:00,69.4,66.7,30.24,South,185,0.0,0.0,91,0.00,,,0.00,Wunderground v.1.15,2013-07-17 10:14:00,
2013-07-17 05:20:00,69.4,67.0,30.24,South,185,0.0,0.0,92,0.00,,,0.00,Wunderground v.1.15,2013-07-17 10:20:00,
2013-07-17 05:25:00,69.4,67.0,30.24,South,185,0.0,0.0,92,0.00,,,0.00,Wunderground v.1.15,2013-07-17 10:25:00,
2013-07-17 05:31:00,69.6,67.2,30.25,South,185,0.0,0.0,92,0.00,,,0.00,Wunderground v.1.15,2013-07-17 10:31:00,
2013-07-17 05:37:00,69.5,66.8,30.25,South,185,0.0,0.0,91,0.00,,,0.00,Wunderground v.1.15,2013-07-17 10:37:00,
2013-07-17 05:42:00,69.6,67.2,30.25,South,185,0.0,0.0,92,0.00,,,0.00,Wunderground v.1.15,2013-07-17 10:42:00,
2013-07-17 05:47:00,69.8,67.4,30.25,South,185,0.0,0.0,92,0.00,,,0.00,Wunderground v.1.15,2013-07-17 10:47:00,
2013-07-17 05:52:00,70.0,67.6,30.25,South,185,0.0,1.0,92,0.00,,,0.00,Wunderground v.1.15,2013-07-17 10:52:00,
2013-07-17 05:57:00,70.1,68.0,30.25,South,186,0.0,2.0,92,0.00,,,0.00,weatherlink.com 1.10,2013-07-17 10:57:00,
2013-07-17 06:03:00,70.3,67.9,30.25,South,186,0.0,0.0,92,0.00,,,0.00,Wunderground v.1.15,2013-07-17 11:03:00,
2013-07-17 06:09:00,70.5,68.1,30.25,South,186,0.0,0.0,92,0.00,,,0.00,Wunderground v.1.15,2013-07-17 11:09:00,
2013-07-17 06:15:00,70.3,67.5,30.25,South,185,0.0,0.0,91,0.00,,,0.00,Wunderground v.1.15,2013-07-17 11:15:00,
2013-07-17 06:20:00,70.1,67.3,30.26,South,185,0.0,0.0,91,0.00,,,0.00,Wunderground v.1.15,2013-07-17 11:20:00,
2013-07-17 06:26:00,70.2,67.8,30.26,South,185,0.0,0.0,92,0.00,,,0.00,Wunderground v.1.15,2013-07-17 11:26:00,
2013-07-17 06:32:00,70.4,68.0,30.26,South,185,0.0,1.0,92,0.00,,,0.00,Wunderground v.1.15,2013-07-17 11:32:00,
2013-07-17 06:37:00,70.2,67.4,30.26,South,185,0.0,1.0,91,0.00,,,0.00,Wunderground v.1.15,2013-07-17 11:37:00,
2013-07-17 06:43:00,70.3,68.0,30.26,North,355,0.0,1.0,92,0.00,,,0.00,weatherlink.com 1.10,2013-07-17 11:43:00,
2013-07-17 06:49:00,70.2,67.4,30.26,NE,35,0.0,1.0,91,0.00,,,0.00,Wunderground v.1.15,2013-07-17 11:49:00,
2013-07-17 06:55:00,70.1,67.3,30.26,NE,35,0.0,1.0,91,0.00,,,0.00,Wunderground v.1.15,2013-07-17 11:55:00,
2013-07-17 07:01:00,70.2,67.8,30.26,NE,35,0.0,1.0,92,0.00,,,0.00,Wunderground v.1.15,2013-07-17 12:01:00,
2013-07-17 07:02:00,70.2,67.8,30.26,NE,35,0.0,1.0,92,0.00,,,0.00,Wunderground v.1.15,2013-07-17 12:02:00,
2013-07-17 07:08:00,70.4,68.0,30.26,NE,35,0.0,1.0,92,0.00,,,0.00,Wunderground v.1.15,2013-07-17 12:08:00,
2013-07-17 07:14:00,70.8,68.4,30.26,NE,35,0.0,1.0,92,0.00,,,0.00,Wunderground v.1.15,2013-07-17 12:14:00,
2013-07-17 07:19:00,71.3,68.9,30.27,NE,35,0.0,1.0,92,0.00,,,0.00,Wunderground v.1.15,2013-07-17 12:19:00,
2013-07-17 07:25:00,71.9,69.4,30.26,NE,35,0.0,1.0,92,0.00,,,0.00,Wunderground v.1.15,2013-07-17 12:25:00,
2013-07-17 07:31:00,72.4,69.9,30.27,NE,35,0.0,1.0,92,0.00,,,0.00,Wunderground v.1.15,2013-07-17 12:31:00,
2013-07-17 07:37:00,72.9,70.4,30.27,NE,35,0.0,1.0,92,0.00,,,0.00,Wunderground v.1.15,2013-07-17 12:37:00,
2013-07-17 07:42:00,73.2,70.7,30.27,SW,236,0.0,1.0,92,0.00,,,0.00,Wunderground v.1.15,2013-07-17 12:42:00,
2013-07-17 07:50:00,73.8,71.0,30.27,SW,236,0.0,1.0,91,0.00,,,0.00,Wunderground v.1.15,2013-07-17 12:50:00,
2013-07-17 07:56:00,74.4,71.3,30.27,SW,219,1.0,2.0,90,0.00,,,0.00,Wunderground v.1.15,2013-07-17 12:56:00,
2013-07-17 08:01:00,75.0,71.5,30.27,SW,219,2.0,2.0,89,0.00,,,0.00,Wunderground v.1.15,2013-07-17 13:01:00,
2013-07-17 08:07:00,75.7,71.9,30.27,SW,222,2.0,3.0,88,0.00,,,0.00,Wunderground v.1.15,2013-07-17 13:07:00,
2013-07-17 08:13:00,76.2,71.4,30.28,WSW,237,2.0,3.0,85,0.00,,,0.00,Wunderground v.1.15,2013-07-17 13:13:00,
2013-07-17 08:19:00,76.6,71.0,30.28,WSW,252,3.0,5.0,83,0.00,,,0.00,Wunderground v.1.15,2013-07-17 13:19:00,
2013-07-17 08:25:00,77.2,71.3,30.28,WSW,254,4.0,4.0,82,0.00,,,0.00,Wunderground v.1.15,2013-07-17 13:25:00,
2013-07-17 08:31:00,77.9,71.6,30.28,WSW,256,2.0,3.0,81,0.00,,,0.00,Wunderground v.1.15,2013-07-17 13:31:00,
2013-07-17 08:37:00,78.2,71.2,30.28,WSW,248,3.0,4.0,79,0.00,,,0.00,Wunderground v.1.15,2013-07-17 13:37:00,
2013-07-17 08:43:00,78.7,71.6,30.28,WSW,248,3.0,3.0,79,0.00,,,0.00,Wunderground v.1.15,2013-07-17 13:43:00,
2013-07-17 08:49:00,79.1,71.3,30.28,WSW,252,2.0,3.0,77,0.00,,,0.00,Wunderground v.1.15,2013-07-17 13:49:00,
2013-07-17 08:55:00,79.5,71.7,30.28,WSW,254,3.0,4.0,77,0.00,,,0.00,Wunderground v.1.15,2013-07-17 13:55:00,
2013-07-17 10:24:00,84.9,73.0,30.28,South,184,0.0,5.0,67,0.00,,,0.00,weatherlink.com 1.10,2013-07-17 15:24:00,
2013-07-17 10:29:00,85.3,72.6,30.28,South,188,2.0,4.0,66,0.00,,,0.00,Wunderground v.1.15,2013-07-17 15:29:00,
2013-07-17 10:35:00,85.6,72.5,30.28,South,189,1.0,2.0,65,0.00,,,0.00,Wunderground v.1.15,2013-07-17 15:35:00,
2013-07-17 10:40:00,85.9,73.7,30.27,South,184,1.0,4.0,67,0.00,,,0.00,Wunderground v.1.15,2013-07-17 15:40:00,
2013-07-17 10:46:00,85.9,72.8,30.27,SSE,161,2.0,4.0,65,0.00,,,0.00,Wunderground v.1.15,2013-07-17 15:46:00,
2013-07-17 10:52:00,86.3,73.1,30.27,South,189,2.0,3.0,65,0.00,,,0.00,Wunderground v.1.15,2013-07-17 15:52:00,
2013-07-17 10:57:00,86.3,72.2,30.27,SSW,194,3.0,3.0,63,0.00,,,0.00,Wunderground v.1.15,2013-07-17 15:57:00,
2013-07-17 11:03:00,86.4,72.3,30.27,SSW,192,2.0,2.0,63,0.00,,,0.00,Wunderground v.1.15,2013-07-17 16:03:00,
2013-07-17 11:09:00,86.6,73.0,30.27,SSW,195,2.0,4.0,64,0.00,,,0.00,Wunderground v.1.15,2013-07-17 16:09:00,
2013-07-17 11:14:00,86.8,73.0,30.27,SSW,196,0.0,6.0,63,0.00,,,0.00,weatherlink.com 1.10,2013-07-17 16:14:00,
2013-07-17 11:20:00,87.1,73.0,30.27,SW,227,3.0,6.0,63,0.00,,,0.00,Wunderground v.1.15,2013-07-17 16:20:00,
2013-07-17 11:26:00,87.2,72.6,30.27,SW,234,3.0,6.0,62,0.00,,,0.00,Wunderground v.1.15,2013-07-17 16:26:00,
2013-07-17 11:32:00,87.6,73.0,30.27,SSW,205,2.0,5.0,62,0.00,,,0.00,Wunderground v.1.15,2013-07-17 16:32:00,
2013-07-17 11:38:00,87.6,72.5,30.27,West,262,4.0,8.0,61,0.00,,,0.00,Wunderground v.1.15,2013-07-17 16:38:00,
2013-07-17 11:44:00,87.5,71.4,30.27,SW,226,4.0,6.0,59,0.00,,,0.00,Wunderground v.1.15,2013-07-17 16:44:00,
2013-07-17 11:49:00,87.4,71.3,30.27,WSW,244,4.0,6.0,59,0.00,,,0.00,Wunderground v.1.15,2013-07-17 16:49:00,
2013-07-17 11:55:00,87.5,71.4,30.27,SW,230,4.0,5.0,59,0.00,,,0.00,Wunderground v.1.15,2013-07-17 16:55:00,
2013-07-17 12:00:00,87.6,71.5,30.27,WSW,250,5.0,5.0,59,0.00,,,0.00,Wunderground v.1.15,2013-07-17 17:00:00,
2013-07-17 12:06:00,87.7,72.1,30.27,WSW,257,5.0,6.0,60,0.00,,,0.00,Wunderground v.1.15,2013-07-17 17:06:00,
2013-07-17 12:11:00,88.0,71.4,30.27,WSW,246,5.0,7.0,58,0.00,,,0.00,Wunderground v.1.15,2013-07-17 17:11:00,
2013-07-17 12:17:00,88.0,71.4,30.26,West,263,6.0,7.0,58,0.00,,,0.00,Wunderground v.1.15,2013-07-17 17:17:00,
2013-07-17 12:23:00,88.2,73.0,30.26,SW,216,6.0,7.0,61,0.00,,,0.00,Wunderground v.1.15,2013-07-17 17:23:00,
2013-07-17 12:29:00,88.3,71.6,30.26,SW,235,6.0,8.0,58,0.00,,,0.00,Wunderground v.1.15,2013-07-17 17:29:00,
2013-07-17 12:34:00,88.0,71.4,30.26,WSW,252,7.0,9.0,58,0.00,,,0.00,Wunderground v.1.15,2013-07-17 17:34:00,
2013-07-17 12:40:00,88.0,72.9,30.26,West,269,8.0,8.0,61,0.00,,,0.00,Wunderground v.1.15,2013-07-17 17:40:00,
2013-07-17 12:46:00,88.4,72.2,30.26,SW,227,6.0,8.0,59,0.00,,,0.00,Wunderground v.1.15,2013-07-17 17:46:00,
2013-07-17 12:51:00,88.7,72.5,30.26,WSW,238,6.0,10.0,59,0.00,,,0.00,Wunderground v.1.15,2013-07-17 17:51:00,
2013-07-17 12:57:00,88.8,72.1,30.26,WSW,241,6.0,10.0,58,0.00,,,0.00,Wunderground v.1.15,2013-07-17 17:57:00,
2013-07-17 13:02:00,88.9,72.7,30.26,West,269,6.0,6.0,59,0.00,,,0.00,Wunderground v.1.15,2013-07-17 18:02:00,
2013-07-17 13:08:00,89.3,73.6,30.26,WSW,244,6.0,10.0,60,0.00,,,0.00,Wunderground v.1.15,2013-07-17 18:08:00,
2013-07-17 13:14:00,89.3,72.1,30.26,SSW,210,6.0,9.0,57,0.00,,,0.00,Wunderground v.1.15,2013-07-17 18:14:00,
2013-07-17 13:19:00,89.2,71.5,30.25,South,184,7.0,12.0,56,0.00,,,0.00,Wunderground v.1.15,2013-07-17 18:19:00,
2013-07-17 13:25:00,89.2,72.0,30.25,SW,236,6.0,8.0,57,0.00,,,0.00,Wunderground v.1.15,2013-07-17 18:25:00,
2013-07-17 13:30:00,89.1,71.0,30.25,SW,227,6.0,15.0,55,0.00,,,0.00,weatherlink.com 1.10,2013-07-17 18:30:00,
2013-07-17 13:36:00,88.9,70.6,30.25,West,269,8.0,12.0,55,0.00,,,0.00,Wunderground v.1.15,2013-07-17 18:36:00,
2013-07-17 13:42:00,89.1,73.4,30.25,WSW,250,7.0,12.0,60,0.00,,,0.00,Wunderground v.1.15,2013-07-17 18:42:00,
2013-07-17 13:47:00,89.2,72.5,30.25,WNW,284,7.0,12.0,58,0.00,,,0.00,Wunderground v.1.15,2013-07-17 18:47:00,
2013-07-17 13:53:00,89.3,72.6,30.24,SW,236,7.0,12.0,58,0.00,,,0.00,Wunderground v.1.15,2013-07-17 18:53:00,
2013-07-17 13:59:00,89.5,71.7,30.24,WSW,246,7.0,12.0,56,0.00,,,0.00,Wunderground v.1.15,2013-07-17 18:59:00,
2013-07-17 14:04:00,89.5,73.8,30.24,SW,216,6.0,10.0,60,0.00,,,0.00,Wunderground v.1.15,2013-07-17 19:04:00,
2013-07-17 14:10:00,89.9,73.1,30.24,SSW,210,6.0,6.0,58,0.00,,,0.00,Wunderground v.1.15,2013-07-17 19:10:00,
2013-07-17 14:15:00,89.7,72.0,30.23,SSW,200,6.0,10.0,56,0.00,,,0.00,weatherlink.com 1.10,2013-07-17 19:15:00,
2013-07-17 14:21:00,88.9,71.7,30.23,SW,229,6.0,8.0,57,0.00,,,0.00,Wunderground v.1.15,2013-07-17 19:21:00,
2013-07-17 14:26:00,89.1,72.4,30.23,WSW,242,6.0,9.0,58,0.00,,,0.00,Wunderground v.1.15,2013-07-17 19:26:00,
2013-07-17 14:32:00,89.3,72.6,30.23,WSW,246,7.0,15.0,58,0.00,,,0.00,Wunderground v.1.15,2013-07-17 19:32:00,
2013-07-17 14:37:00,89.3,72.1,30.23,West,267,7.0,15.0,57,0.00,,,0.00,Wunderground v.1.15,2013-07-17 19:37:00,
2013-07-17 14:43:00,89.7,71.9,30.22,WSW,248,7.0,15.0,56,0.00,,,0.00,Wunderground v.1.15,2013-07-17 19:43:00,
2013-07-17 14:48:00,90.3,74.5,30.22,SW,232,6.0,15.0,60,0.00,,,0.00,Wunderground v.1.15,2013-07-17 19:48:00,
2013-07-17 14:54:00,90.4,73.1,30.22,WSW,250,6.0,15.0,57,0.00,,,0.00,Wunderground v.1.15,2013-07-17 19:54:00,
2013-07-17 15:00:00,89.8,73.0,30.22,SW,217,9.0,12.0,58,0.00,,,0.00,weatherlink.com 1.10,2013-07-17 20:00:00,
2013-07-17 15:06:00,89.1,72.9,30.22,SSW,208,6.0,15.0,59,0.00,,,0.00,Wunderground v.1.15,2013-07-17 20:06:00,
2013-07-17 15:11:00,89.3,72.6,30.22,South,185,6.0,15.0,58,0.00,,,0.00,Wunderground v.1.15,2013-07-17 20:11:00,
2013-07-17 15:17:00,89.5,72.3,30.21,SSW,192,6.0,15.0,57,0.00,,,0.00,Wunderground v.1.15,2013-07-17 20:17:00,
2013-07-17 15:22:00,89.7,73.5,30.21,SW,235,6.0,15.0,59,0.00,,,0.00,Wunderground v.1.15,2013-07-17 20:22:00,
2013-07-17 15:28:00,89.4,72.2,30.21,South,182,6.0,15.0,57,0.00,,,0.00,Wunderground v.1.15,2013-07-17 20:28:00,
2013-07-17 15:33:00,88.8,72.1,30.21,SSW,203,5.0,15.0,58,0.00,,,0.00,Wunderground v.1.15,2013-07-17 20:33:00,
2013-07-17 15:38:00,88.5,73.3,30.21,South,188,3.0,15.0,61,0.00,,,0.00,Wunderground v.1.15,2013-07-17 20:38:00,
2013-07-17 15:44:00,88.7,71.5,30.21,South,183,4.0,15.0,57,0.00,,,0.00,Wunderground v.1.15,2013-07-17 20:44:00,
2013-07-17 15:50:00,88.2,72.6,30.20,SSW,211,5.0,15.0,60,0.00,,,0.00,Wunderground v.1.15,2013-07-17 20:50:00,
2013-07-17 15:55:00,87.5,71.4,30.21,SW,227,6.0,15.0,59,0.00,,,0.00,Wunderground v.1.15,2013-07-17 20:55:00,
2013-07-17 16:00:00,88.1,73.0,30.20,SW,215,7.0,7.0,61,0.00,,,0.00,Wunderground v.1.15,2013-07-17 21:00:00,
2013-07-17 16:06:00,89.1,72.4,30.20,SSW,207,7.0,10.0,58,0.00,,,0.00,Wunderground v.1.15,2013-07-17 21:06:00,
2013-07-17 16:12:00,89.7,73.0,30.20,WSW,237,7.0,7.0,58,0.00,,,0.00,Wunderground v.1.15,2013-07-17 21:12:00,
2013-07-17 16:19:00,90.0,72.7,30.19,WSW,257,6.0,9.0,57,0.00,,,0.00,Wunderground v.1.15,2013-07-17 21:19:00,
2013-07-17 16:25:00,90.1,72.3,30.19,West,263,6.0,8.0,56,0.00,,,0.00,Wunderground v.1.15,2013-07-17 21:25:00,
2013-07-17 16:30:00,90.2,72.4,30.19,WSW,241,6.0,9.0,56,0.00,,,0.00,Wunderground v.1.15,2013-07-17 21:30:00,
2013-07-17 16:36:00,89.7,71.4,30.19,SW,218,6.0,12.0,55,0.00,,,0.00,Wunderground v.1.15,2013-07-17 21:36:00,
2013-07-17 16:42:00,89.9,72.6,30.19,SSW,202,6.0,12.0,57,0.00,,,0.00,Wunderground v.1.15,2013-07-17 21:42:00,
2013-07-17 16:47:00,90.1,72.3,30.19,SW,228,5.0,12.0,56,0.00,,,0.00,Wunderground v.1.15,2013-07-17 21:47:00,
2013-07-17 16:53:00,90.5,72.7,30.19,SSW,205,5.0,12.0,56,0.00,,,0.00,Wunderground v.1.15,2013-07-17 21:53:00,
2013-07-17 16:58:00,90.4,72.0,30.18,SSW,194,5.0,12.0,55,0.00,,,0.00,Wunderground v.1.15,2013-07-17 21:58:00,
2013-07-17 17:04:00,90.1,72.3,30.18,South,175,6.0,7.0,56,0.00,,,0.00,Wunderground v.1.15,2013-07-17 22:04:00,
2013-07-17 17:10:00,90.0,71.7,30.18,SW,215,6.0,6.0,55,0.00,,,0.00,Wunderground v.1.15,2013-07-17 22:10:00,
2013-07-17 17:16:00,89.7,71.0,30.18,SW,214,4.0,9.0,54,0.00,,,0.00,weatherlink.com 1.10,2013-07-17 22:16:00,
2013-07-17 17:21:00,89.1,72.4,30.18,SW,214,5.0,5.0,58,0.00,,,0.00,Wunderground v.1.15,2013-07-17 22:21:00,
2013-07-17 17:27:00,89.0,72.8,30.18,SW,229,5.0,7.0,59,0.00,,,0.00,Wunderground v.1.15,2013-07-17 22:27:00,
2013-07-17 17:32:00,89.4,71.0,30.18,WSW,242,6.0,9.0,55,0.00,,,0.00,weatherlink.com 1.10,2013-07-17 22:32:00,
2013-07-17 17:37:00,89.6,72.3,30.17,SSW,210,6.0,12.0,57,0.00,,,0.00,Wunderground v.1.15,2013-07-17 22:37:00,
2013-07-17 17:43:00,89.3,71.0,30.18,SW,222,7.0,12.0,55,0.00,,,0.00,Wunderground v.1.15,2013-07-17 22:43:00,
2013-07-17 17:49:00,89.0,72.3,30.17,SW,226,7.0,12.0,58,0.00,,,0.00,Wunderground v.1.15,2013-07-17 22:49:00,
2013-07-17 17:54:00,88.9,72.2,30.17,SSW,192,5.0,12.0,58,0.00,,,0.00,Wunderground v.1.15,2013-07-17 22:54:00,
2013-07-17 18:00:00,88.1,72.0,30.17,SSW,207,5.0,5.0,59,0.00,,,0.00,Wunderground v.1.15,2013-07-17 23:00:00,
2013-07-17 18:06:00,87.8,71.2,30.17,South,190,6.0,10.0,58,0.00,,,0.00,Wunderground v.1.15,2013-07-17 23:06:00,
2013-07-17 18:11:00,87.2,71.6,30.17,South,171,6.0,6.0,60,0.00,,,0.00,Wunderground v.1.15,2013-07-17 23:11:00,
2013-07-17 18:17:00,87.3,72.0,30.17,SSW,207,2.0,8.0,60,0.00,,,0.00,weatherlink.com 1.10,2013-07-17 23:17:00,
2013-07-17 18:22:00,87.6,72.0,30.17,SE,140,4.0,7.0,60,0.00,,,0.00,Wunderground v.1.15,2013-07-17 23:22:00,
2013-07-17 18:29:00,87.8,71.7,30.16,SSW,192,4.0,7.0,59,0.00,,,0.00,Wunderground v.1.15,2013-07-17 23:29:00,
2013-07-17 18:36:00,87.9,72.3,30.16,SSW,200,6.0,10.0,60,0.00,,,0.00,Wunderground v.1.15,2013-07-17 23:36:00,
2013-07-17 18:42:00,87.9,71.8,30.16,SSW,208,5.0,10.0,59,0.00,,,0.00,Wunderground v.1.15,2013-07-17 23:42:00,
2013-07-17 18:48:00,87.8,71.7,30.16,SE,142,4.0,10.0,59,0.00,,,0.00,Wunderground v.1.15,2013-07-17 23:48:00,
2013-07-17 18:54:00,87.7,72.6,30.16,SSW,202,4.0,10.0,61,0.00,,,0.00,Wunderground v.1.15,2013-07-17 23:54:00,
2013-07-17 19:00:00,87.6,72.5,30.16,SSW,198,4.0,4.0,61,0.00,,,0.00,Wunderground v.1.15,2013-07-18 00:00:00,
2013-07-17 19:06:00,87.3,72.2,30.16,SSW,212,4.0,4.0,61,0.00,,,0.00,Wunderground v.1.15,2013-07-18 00:06:00,
2013-07-17 19:12:00,87.1,72.0,30.16,SSE,164,4.0,6.0,61,0.00,,,0.00,Wunderground v.1.15,2013-07-18 00:12:00,
2013-07-17 19:18:00,87.1,72.0,30.16,SSE,161,4.0,6.0,61,0.00,,,0.00,Wunderground v.1.15,2013-07-18 00:18:00,
2013-07-17 19:23:00,86.9,72.8,30.16,South,185,4.0,4.0,63,0.00,,,0.00,Wunderground v.1.15,2013-07-18 00:23:00,
2013-07-17 19:29:00,86.8,72.2,30.16,SSW,200,3.0,4.0,62,0.00,,,0.00,Wunderground v.1.15,2013-07-18 00:29:00,
2013-07-17 19:34:00,86.6,71.5,30.16,South,190,3.0,11.0,61,0.00,,,0.00,Wunderground v.1.15,2013-07-18 00:34:00,
2013-07-17 19:40:00,86.5,71.9,30.15,South,179,3.0,3.0,62,0.00,,,0.00,Wunderground v.1.15,2013-07-18 00:40:00,
2013-07-17 19:46:00,86.3,71.7,30.15,South,175,2.0,11.0,62,0.00,,,0.00,Wunderground v.1.15,2013-07-18 00:46:00,
2013-07-17 19:51:00,86.2,72.1,30.15,South,176,2.0,11.0,63,0.00,,,0.00,Wunderground v.1.15,2013-07-18 00:51:00,
2013-07-17 19:57:00,86.0,71.9,30.15,SSW,202,2.0,11.0,63,0.00,,,0.00,Wunderground v.1.15,2013-07-18 00:57:00,
2013-07-17 20:02:00,85.7,72.0,30.15,South,189,3.0,6.0,63,0.00,,,0.00,weatherlink.com 1.10,2013-07-18 01:02:00,
2013-07-17 20:08:00,85.5,71.5,30.15,South,176,3.0,4.0,63,0.00,,,0.00,Wunderground v.1.15,2013-07-18 01:08:00,
2013-07-17 20:13:00,85.2,71.2,30.15,South,181,3.0,3.0,63,0.00,,,0.00,Wunderground v.1.15,2013-07-18 01:13:00,
2013-07-17 20:20:00,84.9,71.4,30.15,South,178,3.0,3.0,64,0.00,,,0.00,Wunderground v.1.15,2013-07-18 01:20:00,
2013-07-17 20:26:00,84.7,71.6,30.15,South,184,3.0,5.0,65,0.00,,,0.00,Wunderground v.1.15,2013-07-18 01:26:00,
2013-07-17 20:32:00,84.4,72.0,30.15,South,179,3.0,6.0,66,0.00,,,0.00,weatherlink.com 1.10,2013-07-18 01:32:00,
2013-07-17 20:37:00,84.2,71.6,30.15,South,181,4.0,8.0,66,0.00,,,0.00,Wunderground v.1.15,2013-07-18 01:37:00,
2013-07-17 20:43:00,83.9,71.8,30.15,South,188,3.0,8.0,67,0.00,,,0.00,Wunderground v.1.15,2013-07-18 01:43:00,
2013-07-17 20:50:00,83.5,71.4,30.15,South,185,4.0,4.0,67,0.00,,,0.00,Wunderground v.1.15,2013-07-18 01:50:00,
2013-07-17 20:55:00,83.2,71.5,30.15,South,178,3.0,8.0,68,0.00,,,0.00,Wunderground v.1.15,2013-07-18 01:55:00,
2013-07-17 21:00:00,83.0,71.3,30.15,South,178,3.0,3.0,68,0.00,,,0.00,Wunderground v.1.15,2013-07-18 02:00:00,
2013-07-17 21:06:00,82.8,71.6,30.15,South,190,3.0,5.0,69,0.00,,,0.00,Wunderground v.1.15,2013-07-18 02:06:00,
2013-07-17 21:12:00,82.6,71.4,30.14,South,188,3.0,5.0,69,0.00,,,0.00,Wunderground v.1.15,2013-07-18 02:12:00,
2013-07-17 21:17:00,82.4,71.0,30.14,SSE,163,2.0,6.0,69,0.00,,,0.00,weatherlink.com 1.10,2013-07-18 02:17:00,
2013-07-17 21:23:00,82.3,71.1,30.14,South,186,3.0,4.0,69,0.00,,,0.00,Wunderground v.1.15,2013-07-18 02:23:00,
2013-07-17 21:29:00,82.1,70.9,30.14,SSW,196,3.0,4.0,69,0.00,,,0.00,Wunderground v.1.15,2013-07-18 02:29:00,
2013-07-17 21:36:00,82.0,71.2,30.15,SSE,153,3.0,7.0,70,0.00,,,0.00,Wunderground v.1.15,2013-07-18 02:36:00,
2013-07-17 21:41:00,81.9,71.2,30.14,South,171,3.0,7.0,70,0.00,,,0.00,Wunderground v.1.15,2013-07-18 02:41:00,
2013-07-17 21:46:00,81.7,71.0,30.15,SSE,159,2.0,7.0,70,0.00,,,0.00,Wunderground v.1.15,2013-07-18 02:46:00,
2013-07-17 21:52:00,81.6,70.9,30.15,SSE,166,2.0,7.0,70,0.00,,,0.00,Wunderground v.1.15,2013-07-18 02:52:00,
2013-07-17 21:58:00,81.4,71.1,30.15,SSE,163,2.0,7.0,71,0.00,,,0.00,Wunderground v.1.15,2013-07-18 02:58:00,
2013-07-17 22:05:00,81.3,71.0,30.15,South,177,2.0,3.0,71,0.00,,,0.00,Wunderground v.1.15,2013-07-18 03:05:00,
2013-07-17 22:11:00,81.2,70.9,30.15,South,181,3.0,4.0,71,0.00,,,0.00,Wunderground v.1.15,2013-07-18 03:11:00,
2013-07-17 22:16:00,81.1,71.2,30.15,South,179,3.0,4.0,72,0.00,,,0.00,Wunderground v.1.15,2013-07-18 03:16:00,
2013-07-17 22:22:00,81.0,71.1,30.15,SSE,161,3.0,3.0,72,0.00,,,0.00,Wunderground v.1.15,2013-07-18 03:22:00,
2013-07-17 22:27:00,80.9,71.0,30.15,South,175,3.0,4.0,72,0.00,,,0.00,Wunderground v.1.15,2013-07-18 03:27:00,
2013-07-17 22:33:00,80.8,71.0,30.15,South,180,3.0,6.0,72,0.00,,,0.00,weatherlink.com 1.10,2013-07-18 03:33:00,
2013-07-17 22:39:00,80.7,71.2,30.15,South,185,3.0,6.0,73,0.00,,,0.00,Wunderground v.1.15,2013-07-18 03:39:00,
2013-07-17 22:44:00,80.6,71.1,30.15,South,173,3.0,6.0,73,0.00,,,0.00,Wunderground v.1.15,2013-07-18 03:44:00,
2013-07-17 22:50:00,80.3,70.9,30.15,SSW,202,3.0,6.0,73,0.00,,,0.00,Wunderground v.1.15,2013-07-18 03:50:00,
2013-07-17 22:56:00,80.1,71.1,30.15,South,184,3.0,6.0,74,0.00,,,0.00,Wunderground v.1.15,2013-07-18 03:56:00,
2013-07-17 23:01:00,79.9,70.9,30.15,South,188,3.0,4.0,74,0.00,,,0.00,Wunderground v.1.15,2013-07-18 04:01:00,
2013-07-17 23:02:00,79.9,70.9,30.15,SSW,194,3.0,4.0,74,0.00,,,0.00,Wunderground v.1.15,2013-07-18 04:02:00,
2013-07-17 23:03:00,79.9,70.9,30.15,SSW,194,3.0,4.0,74,0.00,,,0.00,Wunderground v.1.15,2013-07-18 04:03:00,
2013-07-17 23:08:00,79.8,70.8,30.15,South,191,3.0,4.0,74,0.00,,,0.00,Wunderground v.1.15,2013-07-18 04:08:00,
2013-07-17 23:10:00,79.8,71.2,30.15,South,184,3.0,5.0,75,0.00,,,0.00,Wunderground v.1.15,2013-07-18 04:10:00,
2013-07-17 23:15:00,79.8,71.2,30.15,South,189,4.0,5.0,75,0.00,,,0.00,Wunderground v.1.15,2013-07-18 04:15:00,
2013-07-17 23:21:00,79.7,71.1,30.15,South,184,3.0,4.0,75,0.00,,,0.00,Wunderground v.1.15,2013-07-18 04:21:00,
2013-07-17 23:26:00,79.6,71.0,30.15,South,185,3.0,5.0,75,0.00,,,0.00,Wunderground v.1.15,2013-07-18 04:26:00,
2013-07-17 23:31:00,79.5,70.9,30.15,SW,216,3.0,6.0,75,0.00,,,0.00,Wunderground v.1.15,2013-07-18 04:31:00,
2013-07-17 23:37:00,79.3,71.1,30.15,SSW,193,2.0,6.0,76,0.00,,,0.00,Wunderground v.1.15,2013-07-18 04:37:00,
2013-07-17 23:42:00,79.1,70.9,30.15,SSW,206,2.0,6.0,76,0.00,,,0.00,Wunderground v.1.15,2013-07-18 04:42:00,
2013-07-17 23:48:00,78.9,71.0,30.15,SSW,200,3.0,6.0,76,0.00,,,0.00,weatherlink.com 1.10,2013-07-18 04:48:00,
2013-07-17 23:54:00,78.7,70.9,30.15,SSW,192,3.0,6.0,77,0.00,,,0.00,Wunderground v.1.15,2013-07-18 04:54:00,